x

9441102 - Westport, Wa (wptw1) Weather Station

6:30 - Sun 25th Sep 2016 All times are PDT. -7 hours from GMT.

  • Wind
    9mph, 10mph gusts
  • Sea Temp 59°f
  • Ar Temp 58°f
  • Sea Pressure 1028.1mb
  • 9441102 - Westport, Wa
  • 9441102 - Westport, Wa

More Historic Weather Station data

Upgrade to MSW Pro to gain access to the past 30 days of data for over 8000 Wavebouys and Weather Stations around the globe.

Join Pro

Comparision Forecast

View Surf forecast
   
Dom 09/25 6:30 9 10 mph 1028.1mb 59f 58f
6:24 8 10 mph 1028.2mb 59f 58f
6:18 8 9 mph 1028.2mb 59f 58f
6:12 6 7 mph 1028.2mb 59f 59f
6:06 6 7 mph 1028.1mb 59f 58f
6:00 6 7 mph 1028.1mb 59f 58f
5:36 6 7 mph 1027.9mb 59f 58f
5:30 6 7 mph 1027.8mb 59f 58f
5:24 7
mph
1027.8mb 59f 58f
5:18 6 7 mph 1027.8mb 59f 58f
5:12 6
mph
1027.8mb 59f 58f
5:06 5
mph
1027.8mb 59f 58f
5:00 3 5 mph 1027.9mb 59f 58f
4:36 3 6 mph 1027.7mb 59f 58f
4:30 5 6 mph 1027.6mb 59f 58f
4:24 3 5 mph 1027.6mb 59f 58f
4:18 5 6 mph 1027.6mb 60f 58f
4:12 6 7 mph 1027.5mb 60f 58f
4:06 7
mph
1027.6mb 60f 58f
4:00 6
mph
1027.7mb 60f 58f
3:36 6 8 mph 1027.9mb 60f 58f
3:30 6 8 mph 1027.9mb 60f 58f
3:24 7
mph
1027.9mb 60f 58f
3:18 6 7 mph 1027.9mb 60f 58f
3:12 6 7 mph 1028mb 60f 58f
3:06 5 7 mph 1028.1mb 60f 58f
3:00 6 7 mph 1028.2mb 60f 58f
2:36 7
mph
1028.1mb 60f 58f
2:30 5 6 mph 1028.1mb 60f 58f
2:24 6
mph
1028mb 60f 58f
2:18 5 6 mph 1028.1mb 59f 58f
2:12 5 6 mph 1028.1mb 59f 58f
2:06 6 7 mph 1028.1mb 59f 58f
2:00 6
mph
1028.2mb 59f 58f
1:36 3
mph
1028.3mb 59f 58f
1:30 3
mph
1028.3mb 59f 58f
1:24 3 5 mph 1028.3mb 59f 58f
1:18 2 3 mph 1028.3mb 59f 58f
1:12 3
mph
1028.3mb 59f 58f
1:06 3
mph
1028.4mb 59f 58f
1:00 3 5 mph 1028.4mb 59f 58f
12:36 3
mph
1028.3mb 59f 58f
12:30 3
mph
1028.3mb 59f 58f
12:24 3
mph
1028.3mb 59f 58f
12:18  -  1 mph 1028.4mb 59f 59f
12:12  -  2 mph 1028.5mb 59f 59f
12:06 2
mph
1028.3mb 59f 59f
12:00 2 3 mph 1028.2mb 59f 59f
Sáb 09/24 11:36 2
mph
1028.1mb 59f 59f
11:30  -  mph 1028.2mb 59f 58f
11:24  -  mph 1028.2mb 59f 59f
11:18  -  mph 1028.1mb 59f 59f
11:12  -  mph 1028.1mb 59f 59f
11:06  -  1 mph 1028.1mb 59f 59f
11:00  -  1 mph 1028.1mb 59f 59f
10:36  -  1 mph 1028mb 59f 59f
10:30 1
mph
1028.1mb 59f 59f
10:24 1 2 mph 1028mb 59f 59f
10:18 2 3 mph 1028.1mb 59f 59f
10:12 3
mph
1028mb 59f 59f
10:06 2 3 mph 1027.9mb 59f 59f
10:00 1 2 mph 1027.8mb 59f 59f
9:36 3 5 mph 1027.7mb 59f 59f
9:30 5
mph
1027.7mb 59f 59f
9:24 3 6 mph 1027.7mb 59f 59f
9:18 5 6 mph 1027.7mb 59f 59f
9:12 5 6 mph 1027.6mb 59f 59f
9:06 6 8 mph 1027.6mb 59f 59f
9:00 7 8 mph 1027.6mb 59f 58f
8:36 3 5 mph 1027.1mb 59f 59f
8:30 3
mph
1027.1mb 59f 58f
8:24 1 2 mph 1027mb 59f 58f
8:18 2
mph
1027.1mb 59f 58f
8:12 2 3 mph 1027.1mb 59f 58f
8:06 3
mph
1027.1mb 59f 58f
8:00 2 3 mph 1027mb 59f 58f
7:36 3
mph
1026.9mb 59f 58f
7:30 3 5 mph 1026.9mb 59f 58f
7:24 3 5 mph 1026.8mb 59f 58f
7:18 3
mph
1026.8mb 59f 58f
7:12 2
mph
1026.6mb 59f 58f
7:06 1 2 mph 1026.6mb 59f 58f
7:00 2
mph
1026.6mb 59f 58f
6:36 3 5 mph 1026.6mb 59f 58f
6:30 5
mph
1026.6mb 59f 58f
6:24 5 6 mph 1026.6mb 59f 58f
6:18 5 6 mph 1026.6mb 59f 58f
6:12 6
mph
1026.7mb 59f 58f
6:06 6
mph
1026.7mb 59f 58f
6:00 6
mph
1026.6mb 59f 59f
5:36 6
mph
1026.6mb 59f 58f
5:30 6 7 mph 1026.7mb 59f 58f
5:24 6
mph
1026.7mb 59f 58f
5:18 6 7 mph 1026.7mb 59f 58f
5:12 6
mph
1026.7mb 59f 58f
5:06 6 7 mph 1026.9mb 59f 59f
5:00 6 7 mph 1026.8mb 59f 59f
4:36 7 8 mph 1027mb 59f 59f
4:30 8 9 mph 1026.8mb 59f 59f
4:24 8 9 mph 1026.8mb 59f 60f
4:18 7
mph
1026.8mb 59f 59f
4:12 6 7 mph 1027.2mb 59f 59f
4:06 8 9 mph 1027.3mb 59f 58f
4:00 7 9 mph 1027.1mb 59f 58f
3:36 6 8 mph 1027mb 59f 59f
3:30 5 8 mph 1027mb 59f 59f
3:24 6 9 mph 1027mb 59f 60f
3:18 8 9 mph 1026.9mb 59f 59f
3:12 8 10 mph 1026.9mb 59f 60f
3:06 7 10 mph 1027.1mb 59f 59f
3:00 6 7 mph 1027.1mb 59f 59f
2:36 3 6 mph 1027.6mb 59f 65f
2:30 6
mph
1027.7mb 59f 64f
2:24 6 7 mph 1027.9mb 59f 64f
2:18 5 6 mph 1027.9mb 59f 64f
2:12 2 6 mph 1027.9mb 59f 65f
2:06 3 6 mph 1027.8mb 59f 64f
2:00 2 6 mph 1027.7mb 59f 63f
1:36 5 8 mph 1028.2mb 59f 63f
1:30 5 7 mph 1028.4mb 59f 62f
1:24 6 8 mph 1028.4mb 59f 61f
1:18 5 8 mph 1028.5mb 59f 62f
1:12 6 8 mph 1028.6mb 59f 62f
1:06 7 8 mph 1028.8mb 59f 61f
1:00 6 7 mph 1028.8mb 59f 62f
12:36 2 7 mph 1028.2mb 59f 60f
12:30 6 9 mph 1028.2mb 59f 60f
12:24 6 8 mph 1028.4mb 59f 60f
12:18 7 9 mph 1028.6mb 59f 60f
12:12 3 8 mph 1028.7mb 59f 60f
12:06 7 9 mph 1028.6mb 59f 60f
12:00 6 9 mph 1028.8mb 59f 60f
11:36 3 6 mph 1029.1mb 59f 60f
11:30 5 6 mph 1029.1mb 59f 60f
11:24 3 6 mph 1029mb 59f 60f
11:18 1 6 mph 1028.9mb 59f 59f
11:12 2 6 mph 1029mb 59f 59f
11:06 3 5 mph 1028.8mb 59f 59f
11:00 3 6 mph 1028.7mb 59f 59f
10:36 2
mph
1028.3mb 59f 57f
10:30 2 6 mph 1028.5mb 59f 57f
10:24 2 6 mph 1028.4mb 59f 58f
10:18 1 5 mph 1028.4mb 59f 59f
10:12 5 6 mph 1028.3mb 59f 57f
10:06 5 6 mph 1028.2mb 59f 56f
10:00 3 6 mph 1028.2mb 59f 57f
9:36 6 7 mph 1028mb 58f 56f
9:30 3 6 mph 1028.2mb 58f 57f
9:24 5 6 mph 1028.1mb 58f 55f
9:18 5 6 mph 1028.3mb 58f 55f
9:12 5 6 mph 1028.4mb 58f 55f
9:06 5 7 mph 1028.2mb 58f 55f
9:00 7 8 mph 1027.9mb 58f 54f
8:36 8 9 mph 1027.7mb 58f 53f
8:30 8 9 mph 1027.7mb 58f 54f
8:24 7 10 mph 1027.5mb 58f 54f
8:18 8 9 mph 1027.3mb 58f 54f
8:12 8 9 mph 1027.3mb 58f 54f
8:06 6 7 mph 1027.4mb 58f 55f
8:00 5 6 mph 1027.6mb 58f 55f
7:36 3 5 mph 1027mb 58f 55f
7:30 2 3 mph 1027mb 58f 55f
7:24 2 5 mph 1027mb 58f 55f
7:18 3 5 mph 1027mb 58f 56f
7:12 5
mph
1027mb 58f 55f
7:06 3 5 mph 1026.9mb 58f 55f
7:00 3 6 mph 1026.8mb 58f 55f
6:54 3 5 mph 1026.8mb 58f 55f
6:48 3
mph
1026.8mb 58f 55f
6:36 2 3 mph 1026.6mb 58f 56f
6:30 2 3 mph 1026.5mb 58f 55f
6:24 1 2 mph 1026.3mb 58f 55f
6:18 1 2 mph 1026.3mb 58f 55f
6:12  -  1 mph 1026.4mb 58f 55f
6:06 1 2 mph 1026.3mb 58f 55f
6:00 2 3 mph 1026.4mb 58f 55f
5:54 1 2 mph 1026.3mb 58f 56f
5:48 1 2 mph 1026.1mb 58f 55f
5:36 5 6 mph 1026.3mb 58f 56f
5:30 7 8 mph 1026.3mb 58f 57f
5:24 8 9 mph 1026.3mb 58f 57f
5:18 7 8 mph 1026mb 58f 56f
5:12 7 8 mph 1026mb 58f 57f
5:06 6 8 mph 1025.9mb 58f 57f
5:00 5 7 mph 1025.7mb 58f 57f
4:54 6 7 mph 1025.7mb 58f 57f
4:48 6 7 mph 1025.6mb 58f 57f
4:36 5 6 mph 1025.7mb 58f 56f
4:30 6 7 mph 1025.8mb 58f 56f
4:24 7 8 mph 1025.7mb 58f 56f
4:18 6 7 mph 1025.7mb 58f 56f
4:12 7 8 mph 1025.7mb 58f 56f
4:06 7 8 mph 1025.7mb 58f 56f
4:00 7
mph
1025.6mb 58f 56f
3:54 6 7 mph 1025.5mb 58f 56f
3:48 7 8 mph 1025.4mb 58f 56f
3:36 7
mph
1025.1mb 58f 56f
3:30 6 8 mph 1025.2mb 58f 57f
3:24 7 8 mph 1025.1mb 58f 57f
3:18 7 8 mph 1025.1mb 58f 57f
3:12 6 8 mph 1025.1mb 58f 57f
3:06 8 9 mph 1025.1mb 58f 57f
3:00 9 10 mph 1025.1mb 58f 57f
2:54 9 13 mph 1025.2mb 58f 57f
2:48 10 13 mph 1025.2mb 58f 57f
2:36 9 11 mph 1025.3mb 59f 57f
2:30 11 13 mph 1025.4mb 59f 57f
2:24 10 13 mph 1025.3mb 59f 57f
2:18 10 14 mph 1025.5mb 59f 57f
2:12 14 15 mph 1025.5mb 59f 57f
2:06 13 14 mph 1025.4mb 59f 57f
2:00 13 15 mph 1025.4mb 59f 57f
1:54 11 14 mph 1025.2mb 59f 57f
1:48 10 13 mph 1025.2mb 59f 57f
1:36 13 14 mph 1025.2mb 59f 57f
1:30 13 14 mph 1025.2mb 59f 57f
1:24 11 14 mph 1025.1mb 59f 57f
1:18 9 13 mph 1025.1mb 59f 57f
1:12 10 14 mph 1025.1mb 59f 57f
1:06 13 17 mph 1024.9mb 59f 57f
1:00 13 15 mph 1024.9mb 59f 57f
12:54 11 14 mph 1024.8mb 59f 57f
12:48 10 11 mph 1024.6mb 59f 57f
12:36 7 10 mph 1024.4mb 59f 57f
12:30 8 13 mph 1024.2mb 58f 57f
12:24 11 14 mph 1024.2mb 58f 57f
12:18 8 11 mph 1024.3mb 58f 57f
12:12 8 10 mph 1024.2mb 58f 57f
12:06 7 9 mph 1024.2mb 58f 57f
12:00 7 9 mph 1024.2mb 58f 57f
Sex 09/23 11:54 8 9 mph 1024.2mb 58f 57f
11:48 8
mph
1024.1mb 58f 57f
11:36 6 8 mph 1024mb 58f 57f
11:30 7 10 mph 1023.9mb 58f 57f
11:24 8 11 mph 1023.9mb 58f 57f
11:18 9 11 mph 1023.9mb 58f 57f
11:12 9 11 mph 1023.8mb 58f 57f
11:06 10 13 mph 1023.8mb 58f 57f
11:00 11 14 mph 1023.8mb 58f 57f
10:54 13 15 mph 1023.8mb 58f 57f
10:48 14 16 mph 1023.8mb 58f 57f
10:36 14 16 mph 1023.8mb 58f 57f
10:30 14 16 mph 1023.7mb 58f 57f
10:24 14 16 mph 1023.7mb 58f 57f
10:18 14
mph
1023.5mb 58f 57f
10:12 14 16 mph 1023.5mb 58f 57f
10:06 15 16 mph 1023.4mb 58f 57f
10:00 15 17 mph 1023.4mb 58f 57f
9:54 15 17 mph 1023.3mb 58f 57f
9:48 16 17 mph 1023.2mb 58f 57f
9:36 15 17 mph 1023mb 58f 57f
9:30 15 17 mph 1022.9mb 58f 57f
9:24 15 18 mph 1022.9mb 58f 57f
9:18 16 20 mph 1022.8mb 58f 57f
9:12 16 18 mph 1022.7mb 58f 57f
9:06 17 20 mph 1022.7mb 58f 57f
9:00 16 18 mph 1022.6mb 58f 57f
8:54 16 20 mph 1022.5mb 58f 57f
8:48 16 18 mph 1022.3mb 58f 57f
8:36 16 18 mph 1022.1mb 58f 57f
8:30 16 17 mph 1022mb 58f 58f
8:24 16 20 mph 1021.8mb 58f 58f
8:18 17 21 mph 1021.7mb 58f 58f
8:12 18 21 mph 1021.5mb 58f 58f
8:06 17 21 mph 1021.5mb 58f 58f
8:00 16 21 mph 1021.3mb 58f 58f
7:54 15 18 mph 1021.1mb 58f 58f
7:48 18 20 mph 1021mb 58f 58f
7:36 11 16 mph 1020.8mb 58f 58f
7:30 10 15 mph 1020.7mb 58f 58f
7:24 10 14 mph 1020.7mb 58f 57f
7:18 14 15 mph 1020.4mb 58f 57f
7:12 14 16 mph 1020.5mb 58f 57f
7:06 14 18 mph 1020.6mb 58f 57f
7:00 15 18 mph 1020.5mb 58f 57f
6:54 13 17 mph 1020.4mb 58f 57f
6:48 13 15 mph 1020.3mb 58f 57f
6:36 13 14 mph 1019.9mb 58f 57f
6:30 15 16 mph 1019.9mb 58f 57f
6:24 14 15 mph 1019.9mb 58f 57f
6:18 13 15 mph 1019.7mb 58f 57f
6:12 14 16 mph 1019.6mb 58f 57f
6:06 14 16 mph 1019.5mb 58f 57f
6:00 14 17 mph 1019.4mb 58f 57f
5:54 17 25 mph 1019.4mb 58f 57f
5:48 22 24 mph 1019.3mb 58f 58f
5:36 21 25 mph 1019.1mb 58f 58f
5:30 24 28 mph 1019mb 58f 59f
5:24 24 26 mph 1018.9mb 58f 59f
5:18 20 24 mph 1018.9mb 58f 59f
5:12 16 18 mph 1018.9mb 58f 59f
5:06 15 18 mph 1018.8mb 58f 59f
5:00 15 17 mph 1018.7mb 58f 59f
4:54 15 17 mph 1018.7mb 58f 59f
4:48 15 17 mph 1018.7mb 58f 59f
4:36 15 16 mph 1018.5mb 58f 60f
4:30 15 17 mph 1018.6mb 58f 60f
4:24 15 17 mph 1018.6mb 58f 60f
4:18 14 18 mph 1018.4mb 58f 60f
4:12 16 18 mph 1018.5mb 58f 60f
4:06 15 17 mph 1018.3mb 58f 60f
4:00 15 18 mph 1018.1mb 58f 60f
3:54 16 18 mph 1018mb 58f 60f
3:48 16 18 mph 1018mb 58f 60f
3:36 15 18 mph 1018mb 58f 59f
3:30 16 17 mph 1017.8mb 58f 59f
3:24 16 18 mph 1017.8mb 58f 59f
3:18 16 18 mph 1017.6mb 58f 60f
3:12 15 17 mph 1017.6mb 58f 59f
3:06 14 16 mph 1017.5mb 58f 59f
3:00 13 15 mph 1017.4mb 58f 59f
2:36 14 16 mph 1017.2mb 58f 59f
2:30 15 17 mph 1017.2mb 58f 59f
2:24 14 17 mph 1017mb 58f 59f
2:18 14 16 mph 1017mb 58f 59f
2:12 16 20 mph 1016.9mb 58f 59f
2:06 15 20 mph 1016.7mb 58f 60f
2:00 13 20 mph 1016.5mb 58f 59f
1:54 10 14 mph 1016.4mb 58f 60f
1:48 10 13 mph 1016.4mb 58f 59f
1:36 10 14 mph 1016.2mb 58f 60f
1:30 9 13 mph 1016.1mb 58f 60f
1:24 10 13 mph 1016.1mb 58f 59f
1:18 9 11 mph 1016mb 58f 59f
1:12 10 14 mph 1016.1mb 58f 59f
1:06 13 14 mph 1015.9mb 58f 59f
1:00 11 15 mph 1015.8mb 58f 59f
12:54 9 13 mph 1015.7mb 58f 59f
12:48 11 14 mph 1015.7mb 58f 57f
12:36 13 17 mph 1015.7mb 58f 57f
12:30 15 20 mph 1015.7mb 58f 57f
12:24 13 17 mph 1015.7mb 58f 57f
12:18 16 22 mph 1015.6mb 58f 57f
12:12 14 20 mph 1015.5mb 58f 57f
12:06 14 21 mph 1015.4mb 58f 57f
12:00 13 17 mph 1015.2mb 58f 57f
11:54 14 17 mph 1015mb 57f 57f
11:48 13 17 mph 1014.9mb 57f 57f
11:36 16 22 mph 1014.7mb 57f 57f
11:30 15 23 mph 1014.6mb 57f 57f
11:24 17 30 mph 1014.5mb 57f 56f
11:18 21 28 mph 1014.5mb 57f 56f
11:12 24 32 mph 1014.5mb 57f 56f
11:06 21 39 mph 1014.5mb 57f 55f
11:00 22 33 mph 1014.2mb 57f 55f
10:54 25 38 mph 1014mb 57f 55f
10:48 23 34 mph 1014.2mb 57f 55f
10:36 22 33 mph 1013.7mb 57f 55f
10:30 24 34 mph 1013.5mb 57f 55f
10:24 25 37 mph 1013.6mb 57f 55f
10:18 24 36 mph 1013.4mb 57f 55f
10:12 21 37 mph 1013.3mb 57f 54f
10:06 18 28 mph 1013.4mb 57f 54f
10:00 18 28 mph 1013.4mb 57f 54f
9:54 15 25 mph 1013.3mb 57f 54f
9:48 16 26 mph 1013.3mb 57f 54f
9:36 15 22 mph 1013.4mb 57f 53f
9:30 13 22 mph 1013.4mb 57f 53f
9:24 11 17 mph 1013.3mb 57f 53f
9:18 11 17 mph 1013.3mb 57f 53f
9:12 14 21 mph 1013.3mb 57f 53f
9:06 14 23 mph 1013.4mb 57f 53f
9:00 11 17 mph 1013.4mb 57f 53f
8:54 14 17 mph 1013.5mb 57f 53f
8:48 14 21 mph 1013.4mb 57f 53f
8:36 13 20 mph 1013.4mb 57f 53f
8:30 11 17 mph 1013.4mb 57f 53f
8:24 14 22 mph 1013.4mb 57f 53f
8:18 14 23 mph 1013.5mb 57f 53f
8:12 15 22 mph 1013.6mb 57f 53f
8:06 14 18 mph 1013.7mb 57f 53f
8:00 11 17 mph 1013.8mb 57f 53f
7:54 14 23 mph 1013.8mb 57f 53f
7:48 15 20 mph 1013.9mb 57f 53f
7:36 13 20 mph 1014mb 57f 53f
7:30 13 20 mph 1014.1mb 57f 53f
7:24 11 20 mph - - 53f
7:18 11 17 mph 1014.2mb 57f 53f
7:12 14 21 mph 1014.2mb 57f 53f
7:06 13 20 mph - - 53f
7:00 13 18 mph 1014.3mb 57f 54f
6:36 14 21 mph - - 55f
6:30 14 18 mph 1014.7mb 58f 55f
6:24 14 17 mph - - 55f
6:12 10 15 mph 1014.9mb 58f 55f
6:06 10 16 mph 1014.9mb 58f 55f
6:00 10 15 mph - - 55f
5:54 11 16 mph 1015.1mb 58f 55f
5:48 10 15 mph 1015.2mb 58f 55f
5:36 9 16 mph - - 55f
5:30 10 14 mph 1015.1mb 58f 55f
5:24 9 14 mph 1015.1mb 58f 55f
5:18 10 15 mph 1015.1mb 59f 55f
5:12 10 17 mph 1015mb 59f 55f
5:06 13 20 mph 1015.1mb 59f 55f
5:00 10 16 mph 1015.1mb 59f 55f
4:54 13 18 mph 1015.2mb 59f 55f
4:48 13 17 mph 1015.4mb 58f 55f
4:36 11 17 mph 1015.6mb 58f 55f
4:30 10 16 mph 1015.7mb 58f 55f
4:24 10 15 mph 1015.8mb 58f 55f
4:18 10 16 mph 1015.9mb 58f 56f
4:12 10 14 mph 1016mb 58f 56f
4:06 9 15 mph 1015.9mb 58f 56f
4:00 9 15 mph 1016.1mb 58f 56f
3:54 10 14 mph 1016.2mb 58f 56f
3:48 10 14 mph 1016.2mb 58f 56f
3:36 8 13 mph 1016.5mb 58f 56f
3:30 10 14 mph 1016.5mb 58f 56f
3:24 9 14 mph 1016.6mb 58f 56f
3:18 8 10 mph 1016.7mb 58f 56f
3:12 8 13 mph 1016.8mb 58f 56f
3:06 8 9 mph 1016.8mb 58f 56f
3:00 7 10 mph 1016.9mb 58f 56f
2:54 7 10 mph 1017.1mb 58f 56f
2:48 7 10 mph 1017.1mb 58f 55f
2:36 7 9 mph 1017.1mb 58f 55f
2:30 8 10 mph 1017mb 58f 56f
2:24 8 10 mph 1016.9mb 58f 56f
2:18 7 11 mph 1017mb 58f 56f
2:12 8 11 mph - - 56f
2:06 6 10 mph 1017.1mb 58f 56f
2:00 7 13 mph 1017.1mb 58f 56f
1:54 8 11 mph - - 56f
1:48 8 14 mph - - 56f
1:36 8 15 mph 1017.3mb 58f 56f
1:30 10 15 mph - - 57f
1:24 10 14 mph 1017.4mb 59f 57f
1:18 9 13 mph 1017.5mb 59f 57f
1:12 9 14 mph - - 56f
1:06  -  mph 1017.4mb 59f -
1:00 7 11 mph 1017.4mb 59f 56f
12:48 9 13 mph - - 56f
12:36 7 10 mph 1017.4mb 59f 56f
12:30 7 10 mph - - 55f
12:24 7 11 mph 1017.2mb 59f 55f
12:18 8 11 mph 1017.2mb 59f 56f
12:12 8 10 mph - - 55f
12:06 7 9 mph 1017.3mb 59f 55f
12:00 7 9 mph 1017.3mb 59f 55f
Qui 09/22 11:54 8 10 mph - - 55f
11:48 8 9 mph - - 55f
11:36 8 11 mph 1017.5mb 59f 55f
11:24 8 10 mph 1017.5mb 59f 55f
11:18 7 9 mph 1017.6mb 59f 55f
11:12 6 9 mph 1017.5mb 59f 55f
11:06 7 9 mph 1017.4mb 59f 55f
11:00 7 10 mph 1017.4mb 58f 55f
10:54 8 9 mph 1017.6mb 58f 55f
10:48  -  mph 1017.8mb 58f -
10:36 6 7 mph 1017.7mb 58f 55f
10:30 6 8 mph 1017.8mb 58f 55f
10:24 6 8 mph 1017.9mb 58f 55f
10:18 7 8 mph 1017.9mb 58f 55f
10:12 7 9 mph 1017.9mb 58f 55f
10:06 7 8 mph 1018mb 58f 55f
10:00 6 8 mph 1018.1mb 58f 55f
9:36 7 9 mph 1018.4mb 58f 56f
9:30 7 9 mph 1018.5mb 58f 56f
9:24 6 13 mph 1018.6mb 58f 56f
9:18 8 10 mph 1018.6mb 58f 56f
9:12 8 10 mph 1018.6mb 58f 56f
9:06 8 9 mph 1018.6mb 58f 56f
9:00 8 9 mph 1018.7mb 58f 56f
8:54 8 10 mph 1018.7mb 58f 56f
8:48 8 10 mph 1018.7mb 58f 56f
8:36 7 9 mph 1018.8mb 58f 56f
8:30 7 8 mph 1018.8mb 58f 56f
8:24 7 9 mph 1018.7mb 58f 56f
8:18 7 9 mph 1018.7mb 58f 56f
8:12 7 9 mph 1018.6mb 58f 56f
8:06 7 8 mph - - 56f
8:00 7 8 mph 1018.5mb 57f 56f
7:54 6 7 mph - - 56f
7:48 6 8 mph - - 56f
7:36 7 8 mph 1018.5mb 57f 56f
7:30 7
mph
- - 56f
7:24 6 8 mph 1018.6mb 57f 56f
7:18 6 8 mph 1018.7mb 57f 56f
7:12 6 8 mph - - 57f
7:06 7 9 mph 1018.8mb 56f 57f
7:00 7 9 mph 1018.8mb 56f 57f
6:54 5 7 mph - - 57f
6:48 6 7 mph - - 57f
6:36 6 7 mph 1019.2mb 57f 57f
6:30 7 8 mph - - 57f
6:24 7 9 mph 1019.3mb 56f 58f
6:18 6 8 mph 1019.3mb 57f 58f
6:12 5 7 mph - - 58f
6:06 7 8 mph - - 58f
6:00 7 8 mph 1019.1mb 57f 58f
5:54 6 8 mph - - 58f
5:48 6 8 mph - - 58f
5:36 7 9 mph 1019.1mb 57f 58f
5:30 6 8 mph - - 58f
5:24 7 8 mph 1019.2mb 57f 58f
5:18  -  mph 1019.1mb 58f -
5:12 6 8 mph - - 58f
5:06 6 7 mph 1019mb 58f 59f
5:00 7 9 mph 1019.1mb 58f 59f
4:54 5 6 mph 1019mb 58f 60f
4:48 5 8 mph 1019mb 58f 59f
4:36 5 6 mph 1019mb 58f 59f
4:30 3 5 mph 1018.9mb 58f 62f
4:24 2 3 mph 1018.9mb 58f 62f
4:18 2 3 mph 1018.9mb 58f 64f
4:12 2 5 mph 1018.9mb 58f 64f
4:06 3 5 mph 1019mb 58f 62f
4:00 3 5 mph 1019.1mb 58f 60f
3:54 2 5 mph 1019.3mb 58f 59f
3:48 5 6 mph 1019.3mb 58f 58f
3:36 6 7 mph 1019.3mb 58f 57f
3:30 6 7 mph 1019.3mb 58f 57f
3:24 6 7 mph 1019.3mb 58f 57f
3:18 6 8 mph 1019.2mb 58f 57f
3:12 6 7 mph 1019.2mb 58f 57f
3:06 5 8 mph 1019.2mb 58f 57f
3:00 7 8 mph 1019.1mb 58f 57f
2:54 7 8 mph 1019.1mb 58f 57f
2:48 6 8 mph 1019.1mb 58f 57f
2:36 6 8 mph 1019mb 58f 57f
2:30 6 7 mph 1019mb 58f 57f
2:24 3 6 mph 1018.9mb 58f 61f
2:18 3 5 mph 1018.8mb 58f 62f
2:12 2 5 mph 1018.8mb 58f 59f
2:06 2 5 mph 1018.7mb 58f 59f
2:00 5 6 mph 1018.8mb 58f 57f
1:54 2 5 mph 1018.8mb 58f 58f
1:48 2 3 mph 1018.7mb 58f 58f
1:36 5 6 mph 1018.8mb 58f 57f
1:30 6 7 mph 1018.8mb 58f 58f
1:24 6
mph
1018.7mb 58f 57f
1:18 6 7 mph 1018.7mb 58f 58f
1:12 6 7 mph 1018.8mb 58f 59f
1:06 5 6 mph 1018.7mb 58f 58f
1:00 5 6 mph 1018.7mb 58f 58f
12:36 6 8 mph 1018.8mb 58f 58f
12:30 8 11 mph 1018.8mb 58f 57f
12:24 9 13 mph 1018.8mb 58f 57f
12:18 10 13 mph 1018.8mb 58f 56f
12:12 13 15 mph 1018.7mb 58f 56f
12:06 10 14 mph 1018.6mb 59f 56f
12:00 10 13 mph 1018.6mb 59f 56f
11:54 9 11 mph 1018.5mb 59f 56f
11:48 10 13 mph 1018.5mb 59f 56f
11:36 10 13 mph 1018.4mb 59f 56f
11:30 7 9 mph 1018.4mb 59f 56f
11:24 7 9 mph 1018.3mb 59f 56f
11:18 8 9 mph 1018.2mb 59f 56f
11:12 8 9 mph 1018.1mb 59f 56f
11:06 7 8 mph 1018.1mb 59f 56f
11:00 7 10 mph 1018mb 59f 56f
10:54 7 9 mph 1017.9mb 59f 56f
10:48 7 8 mph 1017.8mb 59f 56f
10:36 7 9 mph 1017.8mb 58f 56f
10:30 8 10 mph 1017.8mb 58f 56f
10:24 8 9 mph 1017.8mb 58f 56f
10:18 7 9 mph 1017.7mb 58f 56f
10:12 7 9 mph 1017.7mb 58f 55f
10:06 6 8 mph 1017.7mb 58f 55f
10:00 8 10 mph 1017.7mb 58f 55f
9:54 7 9 mph 1017.7mb 58f 55f
9:48 7 8 mph 1017.7mb 58f 55f
9:36 3 6 mph 1017.5mb 58f 54f
9:30 3 6 mph 1017.5mb 58f 54f
9:24 5 6 mph 1017.5mb 58f 54f
9:18 7 8 mph 1017.4mb 58f 54f
9:12 6 7 mph 1017.4mb 58f 54f
9:06 8 11 mph 1017.3mb 58f 54f
9:00 11 13 mph 1017.3mb 58f 54f
8:54 10 13 mph 1017.3mb 58f 54f
8:48 7 9 mph 1017.2mb 58f 54f
8:36 8 10 mph 1017.1mb 57f 54f
8:30 8 10 mph 1017mb 57f 54f
8:24 8 9 mph 1016.9mb 57f 54f
8:18 7 13 mph 1016.9mb 57f 54f
8:12 10 14 mph 1016.9mb 57f 54f
8:06 5 7 mph 1016.8mb 57f 54f
8:00 6 8 mph 1016.8mb 57f 54f
7:54 6 9 mph 1016.8mb 57f 54f
7:48 9 11 mph 1016.7mb 57f 54f
7:36 10 16 mph 1016.6mb 56f 54f
7:30 13 16 mph 1016.5mb 56f 55f
7:24 13 15 mph 1016.4mb 56f 55f
7:18 10 14 mph 1016.3mb 56f 55f
7:12 8 11 mph 1016.3mb 55f 55f
7:06 7 10 mph 1016.1mb 55f 55f
7:00 9 14 mph 1016.1mb 55f 55f
6:54 10 14 mph 1016mb 55f 55f
6:36 7 9 mph 1015.9mb 55f 55f
6:30 7 10 mph 1015.8mb 55f 55f
6:24 5 7 mph 1015.7mb 55f 55f
6:18 6 7 mph 1015.7mb 56f 55f
6:12 5 6 mph 1015.7mb 56f 55f
6:06 6 9 mph 1015.5mb 56f 55f
6:00 7 9 mph 1015.5mb 56f 55f
5:36 9 10 mph 1015.3mb 57f 55f
5:30 6 8 mph 1015.4mb 57f 55f
5:24 5 6 mph 1015.4mb 57f 55f
5:18 2 3 mph 1015.4mb 58f 55f
5:12 2 3 mph 1015.4mb 58f 55f
5:06  -  2 mph 1015.4mb 60f 54f
5:00 1 2 mph 1015.5mb 60f 54f
4:54  -  1 mph 1015.5mb 60f 54f
4:48  -  2 mph 1015.4mb 60f 54f
4:36 1 3 mph 1015.4mb 60f 54f
4:30 3 5 mph 1015.4mb 60f 54f
4:24 3 5 mph 1015.4mb 60f 54f
4:18 5 6 mph 1015.4mb 60f 54f
4:12 5 6 mph 1015.4mb 60f 54f
4:06 5 6 mph 1015.3mb 60f 54f
4:00 5 7 mph 1015.2mb 60f 54f
3:54 6 8 mph 1015.2mb 60f 54f
3:48 3 6 mph 1015.1mb 60f 54f
3:36 5 8 mph 1015mb 60f 54f
3:30 7 8 mph 1015mb 60f 54f
3:24 6 7 mph 1014.9mb 60f 54f
3:18 6 7 mph 1014.9mb 60f 54f
3:12 6 8 mph 1014.9mb 60f 54f
3:06 7 8 mph 1014.8mb 60f 53f
3:00 3 5 mph 1014.7mb 60f 53f
2:54 2 5 mph 1014.7mb 60f 53f
2:48 3 5 mph 1014.7mb 60f 53f
2:36 1 3 mph 1014.6mb 59f 53f
2:30 1 3 mph 1014.6mb 59f 53f
2:24 2 5 mph - - 53f
2:18  -  3 mph 1014.6mb 59f 54f
2:12 2 3 mph 1014.5mb 59f 54f
2:06 3
mph
1014.4mb 59f 53f
2:00 3 5 mph 1014.4mb 59f 53f
1:54 3
mph
1014.4mb 59f 54f
1:48 2 3 mph 1014.5mb 59f 53f
1:36 6
mph
1014.6mb 59f 54f
1:30 7 8 mph 1014.6mb 59f 54f
1:24 7
mph
1014.7mb 59f 55f
1:18 6 7 mph 1014.7mb 60f 55f
1:12 6 7 mph 1014.6mb 60f 54f
1:06 7 8 mph 1014.7mb 60f 54f
1:00 6
mph
1014.7mb 60f 54f
12:54 6
mph
1014.7mb 60f 54f
12:48 6
mph
1014.7mb 60f 54f
12:36 6
mph
1014.6mb 60f 53f
12:30 3 5 mph 1014.5mb 60f 53f
12:24 2
mph
1014.5mb 60f 53f
12:18  -  3 mph 1014.4mb 60f 53f
12:12 2 3 mph 1014.4mb 60f 54f
12:06 3 6 mph 1014.4mb 60f 54f
12:00 5 7 mph 1014.4mb 60f 53f
Qua 09/21 11:54 6 7 mph 1014.5mb 60f 56f
11:48 6 7 mph 1014.5mb 60f 55f
11:36 6 7 mph 1014.4mb 60f 55f
11:30 6 7 mph 1014.4mb 60f 55f
11:24 6 8 mph 1014.4mb 60f 55f
11:18 7
mph
1014.4mb 60f 56f
11:12 6 7 mph 1014.5mb 60f 57f
11:06 6
mph
1014.4mb 60f 57f
11:00 6 8 mph 1014.4mb 60f 57f
10:54 7 8 mph 1014.4mb 60f 56f
10:48 7 8 mph 1014.4mb 60f 55f
10:36 8 9 mph 1014.5mb 60f 54f
10:30 6 8 mph 1014.5mb 60f 56f
10:24 6 7 mph 1014.5mb 60f 56f
10:18 1 2 mph 1014.5mb 60f 57f
10:12 1 2 mph 1014.5mb 60f 57f
10:06 2 3 mph 1014.5mb 60f 57f
10:00 3
mph
1014.4mb 60f 57f
9:54 3
mph
1014.4mb 60f 57f
9:48 1 2 mph 1014.4mb 59f 57f
9:36 1 2 mph 1014.5mb 59f 57f
9:30 1 3 mph 1014.5mb 59f 57f
9:24 3 5 mph 1014.6mb 59f 57f
9:18 5 7 mph 1014.6mb 59f 57f
9:12 6 7 mph 1014.6mb 59f 57f
9:06 6 7 mph 1014.6mb 59f 57f
9:00 5 6 mph 1014.6mb 59f 57f
8:54 5 6 mph 1014.6mb 59f 58f
8:48 5 6 mph 1014.6mb 59f 58f
8:36 6
mph
1014.6mb 59f 58f
8:30 6
mph
1014.6mb 59f 57f
8:24 5 6 mph 1014.6mb 59f 57f
8:18 5 6 mph 1014.6mb 59f 57f
8:12 5
mph
1014.7mb 59f 58f
8:06 5 6 mph 1014.7mb 59f 58f
8:00 5 6 mph 1014.6mb 59f 58f
7:54 6 7 mph 1014.7mb 59f 58f
7:48 6 7 mph 1014.7mb 59f 58f
7:36 6 7 mph 1014.6mb 59f 58f
7:30 6 7 mph 1014.7mb 59f 58f
7:24 8 9 mph 1014.8mb 59f 58f
7:18 8 9 mph 1014.7mb 59f 58f
7:12 8 10 mph 1014.6mb 59f 58f
7:06 8 10 mph 1014.6mb 59f 59f
7:00 11 15 mph 1014.7mb 59f 59f
6:54 13 14 mph 1014.7mb 59f 59f
6:48 10 11 mph 1014.7mb 59f 59f
6:36 9 11 mph 1014.6mb 59f 60f
6:30 9 10 mph 1014.7mb 58f 60f
6:24 9 11 mph 1014.7mb 58f 60f
6:18 9 10 mph 1014.8mb 58f 60f
6:12 9 10 mph 1014.9mb 58f 60f
6:06 10 11 mph 1015mb 58f 60f
6:00 9 10 mph 1015.1mb 59f 60f
5:54 10 11 mph 1015.2mb 59f 60f
5:48 9 13 mph 1015.3mb 58f 59f
5:36 10 11 mph 1015.3mb 58f 59f
5:30 11 14 mph 1015.4mb 58f 59f
5:24 11 14 mph 1015.4mb 59f 59f
5:18 11 13 mph 1015.4mb 59f 59f
5:12 11 13 mph 1015.5mb 59f 59f
5:06 10 11 mph 1015.5mb 59f 59f
5:00 11 13 mph 1015.6mb 59f 59f
4:54 11 13 mph 1015.6mb 59f 59f
4:48 11 13 mph 1015.6mb 59f 59f
4:36 13 14 mph 1015.6mb 59f 59f
4:30 13 14 mph 1015.6mb 59f 59f
4:24 11 14 mph 1015.6mb 59f 59f
4:18 11 14 mph 1015.7mb 59f 59f
4:12 13 14 mph 1015.7mb 59f 59f
4:06 13 14 mph 1015.7mb 59f 59f
4:00 14 15 mph 1015.8mb 59f 59f
3:54 13 14 mph 1015.9mb 59f 59f
3:48 11 13 mph 1015.9mb 59f 59f
3:36 13 14 mph 1016mb 59f 58f
3:30 13 14 mph 1016mb 59f 58f
3:24 13 14 mph 1016.1mb 59f 58f
3:18 13 14 mph 1016.2mb 59f 59f
3:12 11 13 mph 1016.2mb 59f 59f
3:06 11 14 mph 1016.2mb 59f 59f
3:00 13 14 mph 1016.3mb 59f 58f
2:54 13 14 mph 1016.3mb 59f 58f
2:48 13 14 mph 1016.4mb 59f 58f
2:36 11 13 mph 1016.5mb 59f 58f
2:30 11 13 mph 1016.6mb 59f 58f
2:24 11 13 mph 1016.6mb 59f 58f